sensor_id;sensor_type;location;lat;lon;timestamp;P1;durP1;ratioP1;P2;durP2;ratioP2
48951;SDS011;34758;42.148;24.744;2023-03-14T00:00:48;8.18;;;3.10;;
48951;SDS011;34758;42.148;24.744;2023-03-14T00:03:15;3.83;;;2.50;;
48951;SDS011;34758;42.148;24.744;2023-03-14T00:05:44;4.55;;;2.35;;
48951;SDS011;34758;42.148;24.744;2023-03-14T00:08:11;6.88;;;3.20;;
48951;SDS011;34758;42.148;24.744;2023-03-14T00:10:38;9.63;;;2.75;;
48951;SDS011;34758;42.148;24.744;2023-03-14T00:13:07;6.32;;;3.30;;
48951;SDS011;34758;42.148;24.744;2023-03-14T00:15:34;4.30;;;2.72;;
48951;SDS011;34758;42.148;24.744;2023-03-14T00:18:01;8.43;;;3.72;;
48951;SDS011;34758;42.148;24.744;2023-03-14T00:20:28;11.27;;;3.78;;
48951;SDS011;34758;42.148;24.744;2023-03-14T00:22:58;8.90;;;4.03;;
48951;SDS011;34758;42.148;24.744;2023-03-14T00:25:25;10.15;;;4.30;;
48951;SDS011;34758;42.148;24.744;2023-03-14T00:27:53;7.38;;;3.70;;
48951;SDS011;34758;42.148;24.744;2023-03-14T00:30:20;6.32;;;2.70;;
48951;SDS011;34758;42.148;24.744;2023-03-14T00:32:47;4.20;;;2.80;;
48951;SDS011;34758;42.148;24.744;2023-03-14T00:35:14;4.75;;;2.75;;
48951;SDS011;34758;42.148;24.744;2023-03-14T00:37:42;4.75;;;2.65;;
48951;SDS011;34758;42.148;24.744;2023-03-14T00:40:14;6.72;;;2.60;;
48951;SDS011;34758;42.148;24.744;2023-03-14T00:42:40;10.50;;;3.38;;
48951;SDS011;34758;42.148;24.744;2023-03-14T00:45:09;9.43;;;3.88;;
48951;SDS011;34758;42.148;24.744;2023-03-14T00:47:36;7.63;;;4.15;;
48951;SDS011;34758;42.148;24.744;2023-03-14T00:50:03;8.50;;;3.63;;
48951;SDS011;34758;42.148;24.744;2023-03-14T00:52:32;9.13;;;3.53;;
48951;SDS011;34758;42.148;24.744;2023-03-14T00:54:59;9.77;;;3.53;;
48951;SDS011;34758;42.148;24.744;2023-03-14T00:57:29;6.10;;;3.25;;
48951;SDS011;34758;42.148;24.744;2023-03-14T00:59:56;4.90;;;3.03;;
48951;SDS011;34758;42.148;24.744;2023-03-14T01:02:23;7.13;;;3.38;;
48951;SDS011;34758;42.148;24.744;2023-03-14T01:04:51;8.85;;;3.67;;
48951;SDS011;34758;42.148;24.744;2023-03-14T01:07:18;8.60;;;4.13;;
48951;SDS011;34758;42.148;24.744;2023-03-14T01:09:45;7.47;;;3.88;;
48951;SDS011;34758;42.148;24.744;2023-03-14T01:12:11;8.05;;;3.75;;
48951;SDS011;34758;42.148;24.744;2023-03-14T01:14:39;7.45;;;4.00;;
48951;SDS011;34758;42.148;24.744;2023-03-14T01:17:06;7.90;;;3.80;;
48951;SDS011;34758;42.148;24.744;2023-03-14T01:19:33;6.93;;;4.80;;
48951;SDS011;34758;42.148;24.744;2023-03-14T01:22:00;10.70;;;5.10;;
48951;SDS011;34758;42.148;24.744;2023-03-14T01:24:27;11.05;;;5.13;;
48951;SDS011;34758;42.148;24.744;2023-03-14T01:26:54;11.75;;;5.80;;
48951;SDS011;34758;42.148;24.744;2023-03-14T01:29:21;11.05;;;5.53;;
48951;SDS011;34758;42.148;24.744;2023-03-14T01:31:50;9.55;;;5.28;;
48951;SDS011;34758;42.148;24.744;2023-03-14T01:34:17;9.55;;;4.70;;
48951;SDS011;34758;42.148;24.744;2023-03-14T01:36:45;10.45;;;4.97;;
48951;SDS011;34758;42.148;24.744;2023-03-14T01:39:11;9.50;;;4.50;;
48951;SDS011;34758;42.148;24.744;2023-03-14T01:41:38;10.38;;;5.68;;
48951;SDS011;34758;42.148;24.744;2023-03-14T01:44:09;12.93;;;5.18;;
48951;SDS011;34758;42.148;24.744;2023-03-14T01:46:38;10.93;;;5.78;;
48951;SDS011;34758;42.148;24.744;2023-03-14T01:49:09;13.80;;;5.57;;
48951;SDS011;34758;42.148;24.744;2023-03-14T01:51:43;10.65;;;6.13;;
48951;SDS011;34758;42.148;24.744;2023-03-14T01:54:16;11.82;;;5.97;;
48951;SDS011;34758;42.148;24.744;2023-03-14T01:56:46;15.90;;;6.57;;
48951;SDS011;34758;42.148;24.744;2023-03-14T01:59:16;9.02;;;6.07;;
48951;SDS011;34758;42.148;24.744;2023-03-14T02:01:44;12.57;;;6.32;;
48951;SDS011;34758;42.148;24.744;2023-03-14T02:04:14;8.75;;;5.93;;
48951;SDS011;34758;42.148;24.744;2023-03-14T02:06:45;13.38;;;5.95;;
48951;SDS011;34758;42.148;24.744;2023-03-14T02:09:16;8.73;;;5.70;;
48951;SDS011;34758;42.148;24.744;2023-03-14T02:11:43;10.98;;;6.22;;
48951;SDS011;34758;42.148;24.744;2023-03-14T02:14:15;11.18;;;6.72;;
48951;SDS011;34758;42.148;24.744;2023-03-14T02:16:47;11.38;;;6.38;;
48951;SDS011;34758;42.148;24.744;2023-03-14T02:19:16;11.68;;;6.57;;
48951;SDS011;34758;42.148;24.744;2023-03-14T02:21:47;11.15;;;7.28;;
48951;SDS011;34758;42.148;24.744;2023-03-14T02:24:20;10.07;;;6.63;;
48951;SDS011;34758;42.148;24.744;2023-03-14T02:27:02;12.88;;;6.70;;
48951;SDS011;34758;42.148;24.744;2023-03-14T02:29:31;12.07;;;5.88;;
48951;SDS011;34758;42.148;24.744;2023-03-14T02:32:00;13.05;;;6.68;;
48951;SDS011;34758;42.148;24.744;2023-03-14T02:34:27;11.30;;;6.53;;
48951;SDS011;34758;42.148;24.744;2023-03-14T02:36:54;10.13;;;6.28;;
48951;SDS011;34758;42.148;24.744;2023-03-14T02:39:21;10.82;;;6.45;;
48951;SDS011;34758;42.148;24.744;2023-03-14T02:41:51;11.27;;;7.40;;
48951;SDS011;34758;42.148;24.744;2023-03-14T02:44:20;18.70;;;7.45;;
48951;SDS011;34758;42.148;24.744;2023-03-14T02:46:47;10.50;;;6.70;;
48951;SDS011;34758;42.148;24.744;2023-03-14T02:49:14;18.02;;;7.55;;
48951;SDS011;34758;42.148;24.744;2023-03-14T02:51:41;16.83;;;8.32;;
48951;SDS011;34758;42.148;24.744;2023-03-14T02:54:10;12.50;;;7.60;;
48951;SDS011;34758;42.148;24.744;2023-03-14T02:56:37;14.93;;;7.00;;
48951;SDS011;34758;42.148;24.744;2023-03-14T02:59:03;12.65;;;7.03;;
48951;SDS011;34758;42.148;24.744;2023-03-14T03:01:34;17.10;;;7.85;;
48951;SDS011;34758;42.148;24.744;2023-03-14T03:04:01;14.57;;;8.32;;
48951;SDS011;34758;42.148;24.744;2023-03-14T03:06:28;15.27;;;8.13;;
48951;SDS011;34758;42.148;24.744;2023-03-14T03:08:55;14.70;;;7.70;;
48951;SDS011;34758;42.148;24.744;2023-03-14T03:11:25;13.68;;;7.82;;
48951;SDS011;34758;42.148;24.744;2023-03-14T03:13:52;14.68;;;7.43;;
48951;SDS011;34758;42.148;24.744;2023-03-14T03:16:19;14.23;;;8.05;;
48951;SDS011;34758;42.148;24.744;2023-03-14T03:18:47;15.82;;;6.93;;
48951;SDS011;34758;42.148;24.744;2023-03-14T03:21:14;14.60;;;7.72;;
48951;SDS011;34758;42.148;24.744;2023-03-14T03:23:42;11.85;;;7.18;;
48951;SDS011;34758;42.148;24.744;2023-03-14T03:26:10;10.88;;;6.78;;
48951;SDS011;34758;42.148;24.744;2023-03-14T03:28:37;13.15;;;7.63;;
48951;SDS011;34758;42.148;24.744;2023-03-14T03:31:08;13.88;;;7.38;;
48951;SDS011;34758;42.148;24.744;2023-03-14T03:33:35;17.08;;;8.38;;
48951;SDS011;34758;42.148;24.744;2023-03-14T03:36:04;11.32;;;7.05;;
48951;SDS011;34758;42.148;24.744;2023-03-14T03:38:33;13.65;;;7.65;;
48951;SDS011;34758;42.148;24.744;2023-03-14T03:41:01;13.98;;;7.00;;
48951;SDS011;34758;42.148;24.744;2023-03-14T03:43:29;15.15;;;7.80;;
48951;SDS011;34758;42.148;24.744;2023-03-14T03:45:56;15.30;;;7.72;;
48951;SDS011;34758;42.148;24.744;2023-03-14T03:48:23;15.07;;;7.38;;
48951;SDS011;34758;42.148;24.744;2023-03-14T03:50:50;12.80;;;8.02;;
48951;SDS011;34758;42.148;24.744;2023-03-14T03:53:19;16.23;;;8.20;;
48951;SDS011;34758;42.148;24.744;2023-03-14T03:55:46;13.18;;;7.63;;
48951;SDS011;34758;42.148;24.744;2023-03-14T03:58:12;14.25;;;8.65;;
48951;SDS011;34758;42.148;24.744;2023-03-14T04:00:40;15.05;;;8.98;;
48951;SDS011;34758;42.148;24.744;2023-03-14T04:03:07;19.27;;;11.10;;
48951;SDS011;34758;42.148;24.744;2023-03-14T04:05:35;19.85;;;10.27;;
48951;SDS011;34758;42.148;24.744;2023-03-14T04:08:02;12.30;;;8.50;;
48951;SDS011;34758;42.148;24.744;2023-03-14T04:10:35;13.27;;;8.90;;
48951;SDS011;34758;42.148;24.744;2023-03-14T04:13:03;15.18;;;8.35;;
48951;SDS011;34758;42.148;24.744;2023-03-14T04:15:30;12.63;;;8.18;;
48951;SDS011;34758;42.148;24.744;2023-03-14T04:17:57;11.35;;;8.07;;
48951;SDS011;34758;42.148;24.744;2023-03-14T04:20:25;16.52;;;9.00;;
48951;SDS011;34758;42.148;24.744;2023-03-14T04:22:51;13.73;;;8.00;;
48951;SDS011;34758;42.148;24.744;2023-03-14T04:25:20;11.55;;;7.35;;
48951;SDS011;34758;42.148;24.744;2023-03-14T04:27:49;14.38;;;7.57;;
48951;SDS011;34758;42.148;24.744;2023-03-14T04:30:16;16.73;;;8.82;;
48951;SDS011;34758;42.148;24.744;2023-03-14T04:32:43;14.70;;;8.52;;
48951;SDS011;34758;42.148;24.744;2023-03-14T04:35:10;17.80;;;8.27;;
48951;SDS011;34758;42.148;24.744;2023-03-14T04:37:37;14.57;;;8.90;;
48951;SDS011;34758;42.148;24.744;2023-03-14T04:40:06;14.40;;;7.88;;
48951;SDS011;34758;42.148;24.744;2023-03-14T04:42:34;15.40;;;9.63;;
48951;SDS011;34758;42.148;24.744;2023-03-14T04:45:03;20.27;;;10.52;;
48951;SDS011;34758;42.148;24.744;2023-03-14T04:47:31;21.75;;;9.57;;
48951;SDS011;34758;42.148;24.744;2023-03-14T04:49:58;18.95;;;10.13;;
48951;SDS011;34758;42.148;24.744;2023-03-14T04:52:25;20.77;;;10.38;;
48951;SDS011;34758;42.148;24.744;2023-03-14T04:54:52;18.88;;;10.52;;
48951;SDS011;34758;42.148;24.744;2023-03-14T04:57:19;21.40;;;10.88;;
48951;SDS011;34758;42.148;24.744;2023-03-14T04:59:46;26.33;;;10.38;;
48951;SDS011;34758;42.148;24.744;2023-03-14T05:02:15;22.60;;;10.65;;
48951;SDS011;34758;42.148;24.744;2023-03-14T05:04:42;21.27;;;11.07;;
48951;SDS011;34758;42.148;24.744;2023-03-14T05:07:09;21.27;;;10.45;;
48951;SDS011;34758;42.148;24.744;2023-03-14T05:09:36;20.40;;;10.55;;
48951;SDS011;34758;42.148;24.744;2023-03-14T05:12:03;20.58;;;11.55;;
48951;SDS011;34758;42.148;24.744;2023-03-14T05:14:31;17.20;;;9.88;;
48951;SDS011;34758;42.148;24.744;2023-03-14T05:16:58;21.73;;;12.07;;
48951;SDS011;34758;42.148;24.744;2023-03-14T05:19:26;22.83;;;9.57;;
48951;SDS011;34758;42.148;24.744;2023-03-14T05:21:53;22.73;;;9.13;;
48951;SDS011;34758;42.148;24.744;2023-03-14T05:24:21;24.02;;;10.35;;
48951;SDS011;34758;42.148;24.744;2023-03-14T05:26:48;21.55;;;10.20;;
48951;SDS011;34758;42.148;24.744;2023-03-14T05:29:16;24.40;;;11.90;;
48951;SDS011;34758;42.148;24.744;2023-03-14T05:31:43;30.95;;;13.70;;
48951;SDS011;34758;42.148;24.744;2023-03-14T05:34:10;34.60;;;13.18;;
48951;SDS011;34758;42.148;24.744;2023-03-14T05:36:39;25.73;;;12.93;;
48951;SDS011;34758;42.148;24.744;2023-03-14T05:39:07;23.52;;;12.85;;
48951;SDS011;34758;42.148;24.744;2023-03-14T05:41:35;27.98;;;15.18;;
48951;SDS011;34758;42.148;24.744;2023-03-14T05:44:02;23.42;;;12.65;;
48951;SDS011;34758;42.148;24.744;2023-03-14T05:46:30;21.05;;;11.40;;
48951;SDS011;34758;42.148;24.744;2023-03-14T05:48:58;19.13;;;11.43;;
48951;SDS011;34758;42.148;24.744;2023-03-14T05:51:27;20.83;;;12.98;;
48951;SDS011;34758;42.148;24.744;2023-03-14T05:53:55;24.38;;;12.68;;
48951;SDS011;34758;42.148;24.744;2023-03-14T05:56:25;23.23;;;13.52;;
48951;SDS011;34758;42.148;24.744;2023-03-14T05:58:51;21.58;;;11.80;;
48951;SDS011;34758;42.148;24.744;2023-03-14T06:01:19;18.48;;;11.00;;
48951;SDS011;34758;42.148;24.744;2023-03-14T06:03:45;22.40;;;11.77;;
48951;SDS011;34758;42.148;24.744;2023-03-14T06:06:13;20.65;;;13.27;;
48951;SDS011;34758;42.148;24.744;2023-03-14T06:08:41;18.08;;;11.38;;
48951;SDS011;34758;42.148;24.744;2023-03-14T06:11:13;19.52;;;12.23;;
48951;SDS011;34758;42.148;24.744;2023-03-14T06:13:40;19.30;;;12.93;;
48951;SDS011;34758;42.148;24.744;2023-03-14T06:16:08;19.15;;;11.05;;
48951;SDS011;34758;42.148;24.744;2023-03-14T06:18:36;17.90;;;11.52;;
48951;SDS011;34758;42.148;24.744;2023-03-14T06:21:03;18.75;;;12.15;;
48951;SDS011;34758;42.148;24.744;2023-03-14T06:23:31;19.27;;;11.05;;
48951;SDS011;34758;42.148;24.744;2023-03-14T06:25:59;15.95;;;11.70;;
48951;SDS011;34758;42.148;24.744;2023-03-14T06:28:27;22.60;;;11.45;;
48951;SDS011;34758;42.148;24.744;2023-03-14T06:30:54;24.63;;;12.52;;
48951;SDS011;34758;42.148;24.744;2023-03-14T06:33:21;19.80;;;11.40;;
48951;SDS011;34758;42.148;24.744;2023-03-14T06:35:48;19.50;;;11.57;;
48951;SDS011;34758;42.148;24.744;2023-03-14T06:38:16;21.63;;;11.98;;
48951;SDS011;34758;42.148;24.744;2023-03-14T06:40:43;20.73;;;11.38;;
48951;SDS011;34758;42.148;24.744;2023-03-14T06:43:10;17.27;;;12.35;;
48951;SDS011;34758;42.148;24.744;2023-03-14T06:45:38;22.15;;;12.23;;
48951;SDS011;34758;42.148;24.744;2023-03-14T06:48:06;25.30;;;12.73;;
48951;SDS011;34758;42.148;24.744;2023-03-14T06:50:32;17.20;;;11.05;;
48951;SDS011;34758;42.148;24.744;2023-03-14T06:53:00;21.05;;;10.98;;
48951;SDS011;34758;42.148;24.744;2023-03-14T06:55:27;20.77;;;10.18;;
48951;SDS011;34758;42.148;24.744;2023-03-14T06:57:55;19.30;;;10.02;;
48951;SDS011;34758;42.148;24.744;2023-03-14T07:00:22;24.30;;;10.55;;
48951;SDS011;34758;42.148;24.744;2023-03-14T07:03:03;18.55;;;9.95;;
48951;SDS011;34758;42.148;24.744;2023-03-14T07:05:30;20.52;;;9.23;;
48951;SDS011;34758;42.148;24.744;2023-03-14T07:07:57;19.42;;;11.13;;
48951;SDS011;34758;42.148;24.744;2023-03-14T07:10:24;20.33;;;10.05;;
48951;SDS011;34758;42.148;24.744;2023-03-14T07:12:51;16.17;;;8.93;;
48951;SDS011;34758;42.148;24.744;2023-03-14T07:15:19;23.15;;;9.45;;
48951;SDS011;34758;42.148;24.744;2023-03-14T07:17:46;20.27;;;10.13;;
48951;SDS011;34758;42.148;24.744;2023-03-14T07:20:18;16.55;;;9.13;;
48951;SDS011;34758;42.148;24.744;2023-03-14T07:22:47;13.73;;;9.10;;
48951;SDS011;34758;42.148;24.744;2023-03-14T07:25:14;22.58;;;9.73;;
48951;SDS011;34758;42.148;24.744;2023-03-14T07:27:42;17.20;;;8.82;;
48951;SDS011;34758;42.148;24.744;2023-03-14T07:30:10;15.05;;;8.60;;
48951;SDS011;34758;42.148;24.744;2023-03-14T07:32:37;17.08;;;8.10;;
48951;SDS011;34758;42.148;24.744;2023-03-14T07:35:05;14.32;;;9.02;;
48951;SDS011;34758;42.148;24.744;2023-03-14T07:37:35;18.42;;;8.35;;
48951;SDS011;34758;42.148;24.744;2023-03-14T07:40:02;15.18;;;9.02;;
48951;SDS011;34758;42.148;24.744;2023-03-14T07:42:33;17.07;;;8.53;;
48951;SDS011;34758;42.148;24.744;2023-03-14T07:45:00;13.68;;;8.90;;
48951;SDS011;34758;42.148;24.744;2023-03-14T07:47:28;15.32;;;7.68;;
48951;SDS011;34758;42.148;24.744;2023-03-14T07:49:55;11.13;;;7.60;;
48951;SDS011;34758;42.148;24.744;2023-03-14T07:52:22;14.88;;;9.05;;
48951;SDS011;34758;42.148;24.744;2023-03-14T07:54:51;18.73;;;9.95;;
48951;SDS011;34758;42.148;24.744;2023-03-14T07:57:17;17.45;;;11.35;;
48951;SDS011;34758;42.148;24.744;2023-03-14T07:59:45;17.80;;;10.05;;
48951;SDS011;34758;42.148;24.744;2023-03-14T08:02:14;19.55;;;9.43;;
48951;SDS011;34758;42.148;24.744;2023-03-14T08:04:46;18.30;;;9.32;;
48951;SDS011;34758;42.148;24.744;2023-03-14T08:07:15;18.92;;;10.00;;
48951;SDS011;34758;42.148;24.744;2023-03-14T08:09:44;17.17;;;10.40;;
48951;SDS011;34758;42.148;24.744;2023-03-14T08:12:12;18.52;;;10.73;;
48951;SDS011;34758;42.148;24.744;2023-03-14T08:14:41;20.02;;;10.07;;
48951;SDS011;34758;42.148;24.744;2023-03-14T08:17:08;18.95;;;11.40;;
48951;SDS011;34758;42.148;24.744;2023-03-14T08:19:35;22.15;;;11.48;;
48951;SDS011;34758;42.148;24.744;2023-03-14T08:22:02;14.80;;;9.32;;
48951;SDS011;34758;42.148;24.744;2023-03-14T08:24:31;18.70;;;10.85;;
48951;SDS011;34758;42.148;24.744;2023-03-14T08:26:58;30.52;;;15.05;;
48951;SDS011;34758;42.148;24.744;2023-03-14T08:29:26;20.58;;;11.05;;
48951;SDS011;34758;42.148;24.744;2023-03-14T08:31:54;19.90;;;10.27;;
48951;SDS011;34758;42.148;24.744;2023-03-14T08:34:22;15.55;;;10.20;;
48951;SDS011;34758;42.148;24.744;2023-03-14T08:36:49;15.35;;;9.48;;
48951;SDS011;34758;42.148;24.744;2023-03-14T08:39:16;17.33;;;9.82;;
48951;SDS011;34758;42.148;24.744;2023-03-14T08:41:43;16.95;;;9.63;;
48951;SDS011;34758;42.148;24.744;2023-03-14T08:44:10;15.10;;;9.20;;
48951;SDS011;34758;42.148;24.744;2023-03-14T08:46:40;16.42;;;7.45;;
48951;SDS011;34758;42.148;24.744;2023-03-14T08:49:07;16.83;;;9.13;;
48951;SDS011;34758;42.148;24.744;2023-03-14T08:51:36;19.20;;;8.13;;
48951;SDS011;34758;42.148;24.744;2023-03-14T08:54:03;13.85;;;9.43;;
48951;SDS011;34758;42.148;24.744;2023-03-14T08:56:30;15.95;;;8.52;;
48951;SDS011;34758;42.148;24.744;2023-03-14T08:58:58;14.13;;;7.78;;
48951;SDS011;34758;42.148;24.744;2023-03-14T09:01:25;14.35;;;8.00;;
48951;SDS011;34758;42.148;24.744;2023-03-14T09:03:54;14.57;;;7.80;;
48951;SDS011;34758;42.148;24.744;2023-03-14T09:06:24;16.90;;;7.37;;
48951;SDS011;34758;42.148;24.744;2023-03-14T09:08:53;11.35;;;6.95;;
48951;SDS011;34758;42.148;24.744;2023-03-14T09:11:20;12.80;;;6.72;;
48951;SDS011;34758;42.148;24.744;2023-03-14T09:13:48;10.85;;;6.40;;
48951;SDS011;34758;42.148;24.744;2023-03-14T09:16:14;12.93;;;5.93;;
48951;SDS011;34758;42.148;24.744;2023-03-14T09:18:42;13.43;;;6.45;;
48951;SDS011;34758;42.148;24.744;2023-03-14T09:21:10;15.82;;;6.60;;
48951;SDS011;34758;42.148;24.744;2023-03-14T09:23:38;12.07;;;6.45;;
48951;SDS011;34758;42.148;24.744;2023-03-14T09:26:05;9.13;;;5.00;;
48951;SDS011;34758;42.148;24.744;2023-03-14T09:28:32;8.90;;;5.28;;
48951;SDS011;34758;42.148;24.744;2023-03-14T09:31:04;11.77;;;5.72;;
48951;SDS011;34758;42.148;24.744;2023-03-14T09:33:33;9.85;;;5.47;;
48951;SDS011;34758;42.148;24.744;2023-03-14T09:36:00;12.18;;;5.45;;
48951;SDS011;34758;42.148;24.744;2023-03-14T09:38:30;11.10;;;5.13;;
48951;SDS011;34758;42.148;24.744;2023-03-14T09:40:58;10.25;;;5.00;;
48951;SDS011;34758;42.148;24.744;2023-03-14T09:43:27;11.10;;;5.18;;
48951;SDS011;34758;42.148;24.744;2023-03-14T09:45:56;10.52;;;4.75;;
48951;SDS011;34758;42.148;24.744;2023-03-14T09:48:24;6.43;;;4.30;;
48951;SDS011;34758;42.148;24.744;2023-03-14T09:50:54;7.18;;;4.22;;
48951;SDS011;34758;42.148;24.744;2023-03-14T09:53:23;5.75;;;3.60;;
48951;SDS011;34758;42.148;24.744;2023-03-14T09:55:55;5.93;;;3.33;;
48951;SDS011;34758;42.148;24.744;2023-03-14T09:58:24;6.13;;;3.42;;
48951;SDS011;34758;42.148;24.744;2023-03-14T10:00:52;5.90;;;4.20;;
48951;SDS011;34758;42.148;24.744;2023-03-14T10:03:22;6.72;;;3.65;;
48951;SDS011;34758;42.148;24.744;2023-03-14T10:05:51;8.30;;;3.63;;
48951;SDS011;34758;42.148;24.744;2023-03-14T10:08:19;11.35;;;4.07;;
48951;SDS011;34758;42.148;24.744;2023-03-14T10:10:46;5.88;;;3.20;;
48951;SDS011;34758;42.148;24.744;2023-03-14T10:13:16;6.47;;;3.42;;
48951;SDS011;34758;42.148;24.744;2023-03-14T10:15:51;6.85;;;3.75;;
48951;SDS011;34758;42.148;24.744;2023-03-14T10:18:19;4.10;;;3.00;;
48951;SDS011;34758;42.148;24.744;2023-03-14T10:20:46;5.82;;;3.33;;
48951;SDS011;34758;42.148;24.744;2023-03-14T10:23:22;4.13;;;2.90;;
48951;SDS011;34758;42.148;24.744;2023-03-14T10:25:58;5.28;;;3.60;;
48951;SDS011;34758;42.148;24.744;2023-03-14T10:28:37;4.68;;;2.88;;
48951;SDS011;34758;42.148;24.744;2023-03-14T10:31:06;6.38;;;3.50;;
48951;SDS011;34758;42.148;24.744;2023-03-14T10:33:35;5.25;;;3.47;;
48951;SDS011;34758;42.148;24.744;2023-03-14T10:36:05;6.80;;;3.10;;
48951;SDS011;34758;42.148;24.744;2023-03-14T10:38:40;5.47;;;3.35;;
48951;SDS011;34758;42.148;24.744;2023-03-14T10:41:14;4.47;;;3.03;;
48951;SDS011;34758;42.148;24.744;2023-03-14T10:43:46;4.40;;;3.42;;
48951;SDS011;34758;42.148;24.744;2023-03-14T10:46:17;7.28;;;4.97;;
48951;SDS011;34758;42.148;24.744;2023-03-14T10:48:45;5.65;;;4.10;;
48951;SDS011;34758;42.148;24.744;2023-03-14T10:51:17;5.80;;;4.05;;
48951;SDS011;34758;42.148;24.744;2023-03-14T10:53:46;6.05;;;3.03;;
48951;SDS011;34758;42.148;24.744;2023-03-14T10:56:15;5.63;;;3.45;;
48951;SDS011;34758;42.148;24.744;2023-03-14T10:58:46;4.57;;;2.63;;
48951;SDS011;34758;42.148;24.744;2023-03-14T11:01:22;4.47;;;3.30;;
48951;SDS011;34758;42.148;24.744;2023-03-14T11:03:57;6.07;;;3.60;;
48951;SDS011;34758;42.148;24.744;2023-03-14T11:06:32;4.90;;;3.50;;
48951;SDS011;34758;42.148;24.744;2023-03-14T11:09:05;8.30;;;3.47;;
48951;SDS011;34758;42.148;24.744;2023-03-14T11:11:37;5.97;;;3.15;;
48951;SDS011;34758;42.148;24.744;2023-03-14T11:14:11;6.70;;;3.22;;
48951;SDS011;34758;42.148;24.744;2023-03-14T11:16:47;5.78;;;3.58;;
48951;SDS011;34758;42.148;24.744;2023-03-14T11:19:21;5.25;;;4.13;;
48951;SDS011;34758;42.148;24.744;2023-03-14T11:21:58;6.18;;;3.78;;
48951;SDS011;34758;42.148;24.744;2023-03-14T11:24:33;4.00;;;3.47;;
48951;SDS011;34758;42.148;24.744;2023-03-14T11:27:09;9.32;;;3.92;;
48951;SDS011;34758;42.148;24.744;2023-03-14T11:29:44;4.78;;;3.78;;
48951;SDS011;34758;42.148;24.744;2023-03-14T11:32:19;8.85;;;3.70;;
48951;SDS011;34758;42.148;24.744;2023-03-14T11:34:59;7.60;;;3.93;;
48951;SDS011;34758;42.148;24.744;2023-03-14T11:37:29;6.07;;;3.78;;
48951;SDS011;34758;42.148;24.744;2023-03-14T11:40:03;6.57;;;2.80;;
48951;SDS011;34758;42.148;24.744;2023-03-14T11:42:37;5.38;;;2.90;;
48951;SDS011;34758;42.148;24.744;2023-03-14T11:45:12;6.07;;;2.30;;
48951;SDS011;34758;42.148;24.744;2023-03-14T11:47:42;6.55;;;3.10;;
48951;SDS011;34758;42.148;24.744;2023-03-14T11:50:12;6.80;;;2.70;;
48951;SDS011;34758;42.148;24.744;2023-03-14T11:52:44;4.22;;;2.70;;
48951;SDS011;34758;42.148;24.744;2023-03-14T11:57:45;3.13;;;2.30;;
48951;SDS011;34758;42.148;24.744;2023-03-14T12:00:16;3.70;;;2.70;;
48951;SDS011;34758;42.148;24.744;2023-03-14T12:02:47;5.07;;;2.63;;
48951;SDS011;34758;42.148;24.744;2023-03-14T12:05:31;4.10;;;2.60;;
48951;SDS011;34758;42.148;24.744;2023-03-14T12:11:01;3.60;;;2.55;;
48951;SDS011;34758;42.148;24.744;2023-03-14T12:13:31;5.43;;;2.70;;
48951;SDS011;34758;42.148;24.744;2023-03-14T12:16:03;4.15;;;2.78;;
48951;SDS011;34758;42.148;24.744;2023-03-14T12:18:33;5.20;;;3.10;;
48951;SDS011;34758;42.148;24.744;2023-03-14T12:21:03;6.45;;;3.83;;
48951;SDS011;34758;42.148;24.744;2023-03-14T12:23:34;6.30;;;4.32;;
48951;SDS011;34758;42.148;24.744;2023-03-14T12:26:07;9.82;;;4.30;;
48951;SDS011;34758;42.148;24.744;2023-03-14T12:28:41;5.40;;;3.47;;
48951;SDS011;34758;42.148;24.744;2023-03-14T12:36:55;7.15;;;2.90;;
48951;SDS011;34758;42.148;24.744;2023-03-14T12:39:31;5.00;;;3.75;;
48951;SDS011;34758;42.148;24.744;2023-03-14T12:42:02;6.75;;;3.20;;
48951;SDS011;34758;42.148;24.744;2023-03-14T12:44:40;3.67;;;3.25;;
48951;SDS011;34758;42.148;24.744;2023-03-14T12:50:19;5.57;;;3.10;;
48951;SDS011;34758;42.148;24.744;2023-03-14T12:56:00;6.18;;;2.90;;
48951;SDS011;34758;42.148;24.744;2023-03-14T12:58:34;5.32;;;3.72;;
48951;SDS011;34758;42.148;24.744;2023-03-14T13:01:03;4.18;;;3.20;;
48951;SDS011;34758;42.148;24.744;2023-03-14T13:03:39;4.22;;;2.85;;
48951;SDS011;34758;42.148;24.744;2023-03-14T13:06:12;5.18;;;3.55;;
48951;SDS011;34758;42.148;24.744;2023-03-14T13:08:40;4.15;;;3.03;;
48951;SDS011;34758;42.148;24.744;2023-03-14T13:11:10;3.75;;;3.33;;
48951;SDS011;34758;42.148;24.744;2023-03-14T13:13:41;9.03;;;5.07;;
48951;SDS011;34758;42.148;24.744;2023-03-14T13:16:12;6.68;;;4.05;;
48951;SDS011;34758;42.148;24.744;2023-03-14T13:18:42;7.03;;;4.20;;
48951;SDS011;34758;42.148;24.744;2023-03-14T13:21:12;17.67;;;9.57;;
48951;SDS011;34758;42.148;24.744;2023-03-14T13:23:54;7.95;;;5.60;;
48951;SDS011;34758;42.148;24.744;2023-03-14T13:26:23;9.55;;;5.45;;
48951;SDS011;34758;42.148;24.744;2023-03-14T13:28:53;7.22;;;4.65;;
48951;SDS011;34758;42.148;24.744;2023-03-14T13:31:22;7.60;;;5.82;;
48951;SDS011;34758;42.148;24.744;2023-03-14T13:33:56;6.47;;;5.30;;
48951;SDS011;34758;42.148;24.744;2023-03-14T13:36:26;6.13;;;4.10;;
48951;SDS011;34758;42.148;24.744;2023-03-14T13:38:55;8.15;;;4.50;;
48951;SDS011;34758;42.148;24.744;2023-03-14T13:41:27;5.35;;;4.20;;
48951;SDS011;34758;42.148;24.744;2023-03-14T13:43:57;6.57;;;4.20;;
48951;SDS011;34758;42.148;24.744;2023-03-14T13:46:27;6.00;;;4.90;;
48951;SDS011;34758;42.148;24.744;2023-03-14T13:48:55;6.95;;;5.03;;
48951;SDS011;34758;42.148;24.744;2023-03-14T13:51:24;7.68;;;6.13;;
48951;SDS011;34758;42.148;24.744;2023-03-14T13:53:57;5.60;;;4.03;;
48951;SDS011;34758;42.148;24.744;2023-03-14T13:56:25;4.25;;;3.40;;
48951;SDS011;34758;42.148;24.744;2023-03-14T13:58:55;7.85;;;4.00;;
48951;SDS011;34758;42.148;24.744;2023-03-14T14:01:23;6.65;;;4.00;;
48951;SDS011;34758;42.148;24.744;2023-03-14T14:03:52;6.45;;;5.38;;
48951;SDS011;34758;42.148;24.744;2023-03-14T14:06:32;8.45;;;3.75;;
48951;SDS011;34758;42.148;24.744;2023-03-14T14:09:02;6.35;;;4.18;;
48951;SDS011;34758;42.148;24.744;2023-03-14T14:11:41;5.45;;;3.65;;
48951;SDS011;34758;42.148;24.744;2023-03-14T14:14:10;5.30;;;3.67;;
48951;SDS011;34758;42.148;24.744;2023-03-14T14:16:39;7.88;;;5.15;;
48951;SDS011;34758;42.148;24.744;2023-03-14T14:19:06;7.47;;;3.97;;
48951;SDS011;34758;42.148;24.744;2023-03-14T14:21:35;5.90;;;4.10;;
48951;SDS011;34758;42.148;24.744;2023-03-14T14:24:03;4.82;;;3.60;;
48951;SDS011;34758;42.148;24.744;2023-03-14T14:26:31;4.53;;;3.45;;
48951;SDS011;34758;42.148;24.744;2023-03-14T14:28:59;5.38;;;3.60;;
48951;SDS011;34758;42.148;24.744;2023-03-14T14:31:27;6.57;;;3.42;;
48951;SDS011;34758;42.148;24.744;2023-03-14T14:33:57;7.03;;;3.70;;
48951;SDS011;34758;42.148;24.744;2023-03-14T14:36:26;6.72;;;4.07;;
48951;SDS011;34758;42.148;24.744;2023-03-14T14:38:58;7.63;;;3.05;;
48951;SDS011;34758;42.148;24.744;2023-03-14T14:41:26;7.97;;;4.63;;
48951;SDS011;34758;42.148;24.744;2023-03-14T14:43:56;7.90;;;4.60;;
48951;SDS011;34758;42.148;24.744;2023-03-14T14:46:25;10.38;;;4.32;;
48951;SDS011;34758;42.148;24.744;2023-03-14T14:48:54;5.55;;;2.95;;
48951;SDS011;34758;42.148;24.744;2023-03-14T14:51:23;7.10;;;4.78;;